Crossville, Tennessee
Current Conditions -  °F | °C
As of 3:53 AM on Friday 31 Oct 2014 (Local Time) from KCSV Reporting Station
Broken Clouds Broken Clouds  
Wind Chill:   Ceiling: 10000
Heat Index:   Visibility: 10mi
Dew Point:   Wind: 0mph
Humidity: 82%   Direction: NA
Pressure: 29.98"   Gusts: NA
Location:  35.95°N, 85.03°W
Report Text: KCSV 310853Z AUTO 00000KT 10SM BKN100 06/03 A2998 RMK AO2 SLP150 T00560028 57010
Loading
Personal Weather Stations






























Interactive Weather Map New forecast layout! Learn more

10-Day Weather Forecast

Advertisements
Track Severe Weather on mobile